LKPR/PRG METAR and TAF weather

Enter ICAO airport designator
Station Type Date Time Source
LKPR METAR 2022/08/16 19:30 UTC NOAA

LKPR 161930Z VRB02KT CAVOK 25/13 Q1012 NOSIG


Station Type Date Time Source
LKPR Decoded METAR 2022/08/16 19:30 UTC NOAA

Praha / Ruzyne, Czech Republic (LKPR) 50-06N 014-15E 365M
Aug 16, 2022 - 03:30 PM EDT / 2022.08.16 1930 UTC
Wind: Variable at 2 MPH (2 KT):0
Visibility: greater than 7 mile(s):0
Temperature: 77 F (25 C)
Dew Point: 55 F (13 C)
Relative Humidity: 47%
Pressure (altimeter): 29.88 in. Hg (1012 hPa)
ob: LKPR 161930Z VRB02KT CAVOK 25/13 Q1012 NOSIG
cycle: 19

Station Type Date Time Source
LKPR TAF 2022/08/16 18:06 UTC NOAA

TAF LKPR 161700Z 1618/1800 VRB02KT CAVOK
BECMG 1708/1710 16006KT PROB30
TEMPO 1712/1716 9999 FEW055TCU

Example: see airport list